Time;durP1;ratioP1;P1;durP2;ratioP2;P2;SDS_P1;SDS_P2;PMS_P1;PMS_P2;Temp;Humidity;BMP_temperature;BMP_pressure;BME280_temperature;BME280_humidity;BME280_pressure;Samples;Min_cycle;Max_cycle;Signal;HPM_P1;HPM_P2
2022/09/28 00:01:08;;;;;;;11.88;3.60;;;14.10;99.90;;;;;;5077749;28;20081;-54
2022/09/28 00:03:35;;;;;;;11.90;3.83;;;14.10;99.90;;;;;;5077710;28;20085;-54
2022/09/28 00:06:06;;;;;;;11.25;4.43;;;14.10;99.90;;;;;;5077732;28;20035;-54
2022/09/28 00:08:33;;;;;;;8.27;3.83;;;14.10;99.90;;;;;;5077744;28;20036;-55
2022/09/28 00:11:00;;;;;;;4.28;2.97;;;14.10;99.90;;;;;;5077705;28;20036;-54
2022/09/28 00:13:27;;;;;;;8.77;2.65;;;14.10;99.90;;;;;;5077392;28;20040;-54
2022/09/28 00:16:12;;;;;;;4.45;2.45;;;14.20;99.90;;;;;;5077811;28;20373;-54
2022/09/28 00:18:39;;;;;;;5.38;2.38;;;14.20;99.90;;;;;;5077643;28;20367;-54
2022/09/28 00:21:08;;;;;;;5.18;2.45;;;14.10;99.90;;;;;;5077455;28;20489;-54
2022/09/28 00:24:11;;;;;;;6.93;2.60;;;14.10;99.90;;;;;;5077342;28;20025;-54
2022/09/28 00:26:21;;;;;;;8.60;3.58;;;14.10;99.90;;;;;;5097468;28;20031;-54
2022/09/28 00:28:51;;;;;;;10.30;4.82;;;14.00;99.90;;;;;;5097657;28;20343;-54
2022/09/28 00:31:17;;;;;;;11.43;4.68;;;14.00;99.90;;;;;;5097551;28;20035;-54
2022/09/28 00:33:44;;;;;;;14.75;7.47;;;14.00;99.90;;;;;;5097545;28;20056;-54
2022/09/28 00:36:09;;;;;;;9.57;3.70;;;13.90;99.90;;;;;;5097450;28;20032;-54
2022/09/28 00:38:38;;;;;;;7.70;4.05;;;13.90;99.90;;;;;;5096263;28;20066;-54
2022/09/28 00:41:04;;;;;;;4.13;1.90;;;14.00;99.90;;;;;;5095956;28;20370;-54
2022/09/28 00:43:30;;;;;;;3.40;1.80;;;14.00;99.90;;;;;;5096135;28;20047;-54
2022/09/28 00:46:14;;;;;;;4.30;1.80;;;14.10;99.90;;;;;;5085668;28;20115;-54
2022/09/28 00:48:46;;;;;;;4.28;1.05;;;14.00;99.90;;;;;;5076979;28;20573;-54
2022/09/28 00:51:12;;;;;;;8.50;2.70;;;14.10;99.90;;;;;;5077034;28;20063;-54
2022/09/28 00:53:42;;;;;;;2.33;0.90;;;14.00;99.90;;;;;;5075585;28;20036;-54
2022/09/28 00:56:13;;;;;;;3.72;1.05;;;14.00;99.90;;;;;;5077042;28;20058;-54
2022/09/28 00:58:44;;;;;;;3.38;1.00;;;13.90;99.90;;;;;;5076845;28;20033;-54
2022/09/28 01:01:11;;;;;;;3.90;1.02;;;13.80;99.90;;;;;;5076705;28;20040;-54
2022/09/28 01:03:44;;;;;;;5.40;0.93;;;13.80;99.90;;;;;;5075438;28;20082;-54
2022/09/28 01:06:16;;;;;;;11.70;1.85;;;13.80;99.90;;;;;;5076563;28;20050;-54
2022/09/28 01:08:44;;;;;;;4.63;0.77;;;13.80;99.90;;;;;;5075887;28;20432;-54
2022/09/28 01:11:12;;;;;;;2.60;1.05;;;13.80;99.90;;;;;;5075188;28;20028;-54
2022/09/28 01:13:39;;;;;;;5.18;1.02;;;13.80;99.90;;;;;;5076500;28;20042;-54
2022/09/28 01:16:21;;;;;;;3.53;1.05;;;13.60;99.90;;;;;;5075181;28;20024;-54
2022/09/28 01:19:26;;;;;;;1.08;0.73;;;13.70;99.90;;;;;;5075400;28;20078;-54
2022/09/28 01:22:07;;;;;;;2.92;0.70;;;13.60;99.90;;;;;;5075015;28;20058;-54
2022/09/28 01:24:41;;;;;;;1.67;0.73;;;13.70;99.90;;;;;;5082250;28;20450;-54
2022/09/28 01:27:27;;;;;;;4.60;0.98;;;13.80;99.90;;;;;;5095258;28;20024;-54
2022/09/28 01:29:59;;;;;;;2.97;1.20;;;13.60;99.90;;;;;;5096580;28;20054;-54
2022/09/28 01:32:38;;;;;;;1.85;1.00;;;13.50;99.90;;;;;;5096495;28;20021;-54
2022/09/28 01:35:09;;;;;;;4.60;0.80;;;13.50;99.90;;;;;;5095061;28;20697;-54
2022/09/28 01:37:48;;;;;;;4.68;1.10;;;13.40;99.90;;;;;;5096259;28;20363;-54
2022/09/28 01:40:15;;;;;;;1.48;0.90;;;13.30;99.90;;;;;;5094792;28;20035;-54
2022/09/28 01:42:44;;;;;;;4.15;0.80;;;13.30;99.90;;;;;;5096327;28;20024;-54
2022/09/28 01:45:24;;;;;;;4.20;0.90;;;13.30;99.90;;;;;;5091108;28;20487;-54
2022/09/28 01:47:52;;;;;;;3.70;1.15;;;13.20;99.90;;;;;;5074694;28;20028;-54
2022/09/28 01:50:23;;;;;;;4.10;1.17;;;13.30;99.90;;;;;;5074526;28;20489;-54
2022/09/28 01:53:18;;;;;;;5.00;0.88;;;13.30;99.90;;;;;;5074561;28;20033;-54
2022/09/28 01:55:53;;;;;;;4.57;1.17;;;13.40;99.90;;;;;;5053286;28;20041;-54
2022/09/28 01:58:19;;;;;;;3.60;1.00;;;13.30;99.90;;;;;;5074375;28;20032;-54
2022/09/28 02:00:53;;;;;;;4.95;0.90;;;13.30;99.90;;;;;;5074242;28;20393;-54
2022/09/28 02:03:28;;;;;;;11.07;1.08;;;13.10;99.90;;;;;;5074203;28;20117;-54
2022/09/28 02:06:08;;;;;;;2.85;0.95;;;13.20;99.90;;;;;;5074160;28;20024;-54
2022/09/28 02:08:44;;;;;;;3.28;0.85;;;13.30;99.90;;;;;;5075461;28;20021;-54
2022/09/28 02:11:19;;;;;;;7.70;1.75;;;13.20;99.90;;;;;;5073889;28;20032;-54
2022/09/28 02:14:00;;;;;;;4.38;1.10;;;13.20;99.90;;;;;;5073928;28;20494;-54
2022/09/28 02:16:39;;;;;;;5.30;0.95;;;13.20;99.90;;;;;;5073924;28;20036;-54
2022/09/28 02:19:10;;;;;;;5.38;1.00;;;13.10;99.90;;;;;;5073233;28;20028;-54
2022/09/28 02:22:02;;;;;;;3.85;1.20;;;13.00;99.90;;;;;;5073508;28;20020;-54
2022/09/28 02:24:39;;;;;;;4.55;1.45;;;13.10;99.90;;;;;;5069423;28;20074;-54
2022/09/28 02:27:14;;;;;;;7.30;1.70;;;13.10;99.90;;;;;;5094032;28;20028;-54
2022/09/28 02:29:40;;;;;;;4.80;1.38;;;13.20;99.90;;;;;;5093906;28;20077;-54
2022/09/28 02:32:06;;;;;;;6.45;1.50;;;13.10;99.90;;;;;;5095188;28;20032;-54
2022/09/28 02:34:33;;;;;;;8.05;1.48;;;13.10;99.90;;;;;;5093890;28;20096;-54
2022/09/28 02:37:00;;;;;;;8.75;1.58;;;13.20;99.90;;;;;;5093893;28;20028;-54
2022/09/28 02:39:26;;;;;;;10.13;1.77;;;13.10;99.90;;;;;;5095052;28;20543;-54
2022/09/28 02:41:58;;;;;;;7.50;1.63;;;13.10;99.90;;;;;;5094935;28;20032;-54
2022/09/28 02:44:42;;;;;;;3.42;1.35;;;13.10;99.90;;;;;;5095025;28;20067;-54
2022/09/28 02:47:13;;;;;;;9.40;1.60;;;13.10;99.90;;;;;;5053424;28;20386;-54
2022/09/28 02:49:58;;;;;;;13.00;2.30;;;13.10;99.90;;;;;;5053425;28;20036;-54
2022/09/28 02:52:48;;;;;;;16.58;2.63;;;13.10;99.90;;;;;;5053290;28;20044;-54
2022/09/28 02:55:37;;;;;;;6.72;2.53;;;13.10;99.90;;;;;;5053255;28;20025;-54
2022/09/28 02:58:24;;;;;;;10.02;2.20;;;13.20;99.90;;;;;;5053274;28;20048;-54
2022/09/28 03:01:09;;;;;;;3.60;1.55;;;13.00;99.90;;;;;;5053393;28;20083;-54
2022/09/28 03:04:04;;;;;;;7.07;2.03;;;13.10;99.90;;;;;;5054480;28;20374;-54
2022/09/28 03:06:44;;;;;;;2.22;1.27;;;12.90;99.90;;;;;;5053171;28;20079;-54
2022/09/28 03:09:25;;;;;;;5.95;1.33;;;12.90;99.90;;;;;;5053112;28;20033;-54
2022/09/28 03:11:59;;;;;;;5.80;1.73;;;13.00;99.90;;;;;;5052965;28;20049;-54
2022/09/28 03:14:26;;;;;;;8.35;1.80;;;13.00;99.90;;;;;;5053212;28;20388;-54
2022/09/28 03:16:55;;;;;;;4.35;1.52;;;13.00;99.90;;;;;;5052957;28;20051;-54
2022/09/28 03:19:31;;;;;;;13.15;1.70;;;13.00;99.90;;;;;;5054292;28;20025;-54
2022/09/28 03:21:59;;;;;;;5.40;1.65;;;13.00;99.90;;;;;;5052876;28;20040;-54
2022/09/28 03:24:25;;;;;;;10.82;1.40;;;13.00;99.90;;;;;;5063708;28;20035;-54
2022/09/28 03:26:51;;;;;;;7.72;1.80;;;12.90;99.90;;;;;;5093349;28;20051;-54
2022/09/28 03:29:19;;;;;;;5.28;1.20;;;12.90;99.90;;;;;;5093119;28;20051;-54
2022/09/28 03:31:49;;;;;;;10.57;1.48;;;12.80;99.90;;;;;;5095929;28;20465;-54
2022/09/28 03:34:15;;;;;;;5.18;1.02;;;12.80;99.90;;;;;;5098734;28;20115;-54
2022/09/28 03:36:41;;;;;;;6.07;1.20;;;12.80;99.90;;;;;;5098646;28;20060;-54
2022/09/28 03:39:07;;;;;;;8.02;3.30;;;12.80;99.90;;;;;;5098816;28;20436;-54
2022/09/28 03:41:33;;;;;;;7.40;2.65;;;12.90;99.90;;;;;;5097183;28;20032;-54
2022/09/28 03:44:00;;;;;;;13.20;6.93;;;12.90;99.90;;;;;;5097299;28;20052;-54
2022/09/28 03:46:28;;;;;;;10.02;4.43;;;12.90;99.90;;;;;;5081222;28;20037;-54
2022/09/28 03:48:58;;;;;;;12.75;4.80;;;12.90;99.90;;;;;;5076814;28;20559;-54
2022/09/28 03:51:24;;;;;;;12.18;5.50;;;12.80;99.90;;;;;;5076743;28;20036;-54
2022/09/28 03:53:52;;;;;;;13.10;5.65;;;12.90;99.90;;;;;;5077984;28;20032;-54
2022/09/28 03:56:18;;;;;;;16.65;6.57;;;12.70;99.90;;;;;;5078044;28;20028;-54
2022/09/28 03:58:44;;;;;;;15.00;6.20;;;12.80;99.90;;;;;;5077872;28;20036;-54
2022/09/28 04:01:14;;;;;;;16.50;6.40;;;12.80;99.90;;;;;;5076544;28;20500;-54
2022/09/28 04:03:41;;;;;;;15.77;6.22;;;12.80;99.90;;;;;;5076268;28;20402;-54
2022/09/28 04:06:08;;;;;;;16.55;6.20;;;12.70;99.90;;;;;;5077788;28;20032;-55
2022/09/28 04:08:34;;;;;;;20.33;5.70;;;12.80;99.90;;;;;;5076393;28;20016;-55
2022/09/28 04:11:00;;;;;;;18.08;7.30;;;12.80;99.90;;;;;;5076387;28;20133;-55
2022/09/28 04:13:28;;;;;;;20.95;6.65;;;12.60;99.90;;;;;;5076018;28;20048;-55
2022/09/28 04:15:56;;;;;;;16.50;7.13;;;12.60;99.90;;;;;;5076291;28;20454;-55
2022/09/28 04:18:23;;;;;;;17.25;6.60;;;12.60;99.90;;;;;;5076153;28;20025;-55
2022/09/28 04:21:21;;;;;;;13.05;4.82;;;12.50;99.90;;;;;;5032538;28;20428;-55
2022/09/28 04:23:58;;;;;;;23.40;6.70;;;12.60;99.90;;;;;;5076947;28;20038;-55
2022/09/28 04:26:26;;;;;;;18.27;5.55;;;12.70;99.90;;;;;;5096332;28;20481;-55
2022/09/28 04:31:49;;;;;;;26.67;8.02;;;12.40;99.90;;;;;;5096257;28;20496;-55
2022/09/28 04:34:22;;;;;;;16.67;6.22;;;12.30;99.90;;;;;;5096130;28;20427;-55
2022/09/28 04:36:48;;;;;;;18.35;6.82;;;12.30;99.90;;;;;;5096165;28;20040;-55
2022/09/28 04:39:16;;;;;;;25.63;7.35;;;12.30;99.90;;;;;;5096017;28;20118;-55
2022/09/28 04:41:47;;;;;;;17.20;6.78;;;12.30;99.90;;;;;;5095641;28;20503;-55
2022/09/28 04:44:13;;;;;;;16.98;7.18;;;12.30;99.90;;;;;;5095170;28;20115;-55
2022/09/28 04:46:39;;;;;;;15.98;7.75;;;12.40;99.90;;;;;;5078589;28;20047;-55
2022/09/28 04:49:24;;;;;;;25.98;9.82;;;12.40;99.90;;;;;;5076856;28;20040;-55
2022/09/28 04:51:56;;;;;;;18.02;7.30;;;12.30;99.90;;;;;;5075538;28;20350;-55
2022/09/28 04:54:22;;;;;;;18.42;7.95;;;12.40;99.90;;;;;;5075818;28;20360;-55
2022/09/28 04:56:48;;;;;;;17.77;8.93;;;12.50;99.90;;;;;;5075528;28;20137;-55
2022/09/28 04:59:14;;;;;;;19.85;10.70;;;12.40;99.90;;;;;;5075389;28;20035;-55
2022/09/28 05:01:41;;;;;;;27.33;10.10;;;12.30;99.90;;;;;;5075423;28;20034;-55
2022/09/28 05:04:27;;;;;;;29.63;13.30;;;12.30;99.90;;;;;;5076866;28;20059;-55
2022/09/28 05:07:19;;;;;;;27.80;12.02;;;12.20;99.90;;;;;;5060239;28;20028;-55
2022/09/28 05:09:44;;;;;;;23.27;11.52;;;12.40;99.90;;;;;;5075193;28;20028;-55
2022/09/28 05:12:10;;;;;;;27.48;12.40;;;12.50;99.90;;;;;;5074994;28;20040;-55
2022/09/28 05:14:37;;;;;;;25.85;10.73;;;12.50;99.90;;;;;;5075171;28;20036;-55
2022/09/28 05:17:04;;;;;;;22.45;10.30;;;12.50;99.90;;;;;;5075049;28;20060;-55
2022/09/28 05:19:48;;;;;;;22.38;9.73;;;12.50;99.90;;;;;;5074629;28;20344;-55
2022/09/28 05:22:14;;;;;;;12.07;6.55;;;12.60;99.90;;;;;;5074767;28;20508;-55
2022/09/28 05:24:45;;;;;;;17.25;7.25;;;12.60;99.90;;;;;;5074622;28;20033;-55
2022/09/28 05:27:11;;;;;;;22.23;10.35;;;12.70;99.90;;;;;;5067293;28;20459;-55
2022/09/28 05:29:37;;;;;;;19.52;9.70;;;12.60;99.90;;;;;;5053736;28;20025;-55
2022/09/28 05:32:40;;;;;;;15.43;8.98;;;12.70;99.90;;;;;;5052084;28;20044;-55
2022/09/28 05:35:26;;;;;;;18.33;10.75;;;12.70;99.90;;;;;;5069198;28;20073;-55
2022/09/28 05:37:52;;;;;;;16.15;10.43;;;12.70;99.90;;;;;;5074464;28;20560;-55
2022/09/28 05:40:20;;;;;;;18.42;10.23;;;12.70;99.90;;;;;;5074880;28;20573;-55
2022/09/28 05:42:47;;;;;;;16.77;10.98;;;12.70;99.90;;;;;;5075064;28;20546;-55
2022/09/28 05:45:13;;;;;;;16.25;9.68;;;12.80;99.90;;;;;;5074237;28;20025;-55
2022/09/28 05:47:42;;;;;;;17.27;8.88;;;12.60;99.90;;;;;;5058114;28;20028;-55
2022/09/28 05:50:10;;;;;;;21.48;10.15;;;12.70;99.90;;;;;;5073956;28;20031;-55
2022/09/28 05:52:37;;;;;;;17.55;8.65;;;12.70;99.90;;;;;;5074137;28;20359;-55
2022/09/28 05:55:06;;;;;;;15.85;8.85;;;12.80;99.90;;;;;;5074105;28;20020;-55
2022/09/28 05:57:32;;;;;;;16.30;8.23;;;12.80;99.90;;;;;;5074097;28;20035;-55
2022/09/28 05:59:59;;;;;;;25.05;10.73;;;12.80;99.90;;;;;;5074141;28;20023;-55
2022/09/28 06:02:26;;;;;;;22.85;11.48;;;12.90;99.90;;;;;;5108041;28;20021;-55
2022/09/28 06:04:53;;;;;;;27.77;14.45;;;13.10;99.90;;;;;;5073743;28;20557;-55
2022/09/28 06:07:19;;;;;;;70.15;31.42;;;13.30;99.90;;;;;;5074057;28;20033;-55
2022/09/28 06:09:45;;;;;;;61.47;28.20;;;13.30;99.90;;;;;;5075526;28;20082;-55
2022/09/28 06:12:25;;;;;;;56.38;27.15;;;13.20;99.90;;;;;;5075128;28;20037;-55
2022/09/28 06:15:00;;;;;;;33.08;16.98;;;13.20;99.90;;;;;;5071124;28;20036;-55
2022/09/28 06:17:27;;;;;;;32.85;17.50;;;13.30;99.90;;;;;;5087337;28;20089;-55
2022/09/28 06:20:13;;;;;;;32.22;17.55;;;13.50;99.90;;;;;;5094975;28;20024;-55
2022/09/28 06:22:56;;;;;;;35.97;20.67;;;13.60;99.90;;;;;;5095015;28;20474;-55
2022/09/28 06:25:23;;;;;;;34.55;20.40;;;13.80;99.90;;;;;;5080753;28;20029;-55
2022/09/28 06:28:02;;;;;;;37.03;19.83;;;13.90;99.90;;;;;;5073242;28;20135;-55
2022/09/28 06:30:30;;;;;;;32.80;19.27;;;13.90;99.90;;;;;;5074748;28;20710;-55
2022/09/28 06:32:58;;;;;;;25.75;14.55;;;14.20;99.90;;;;;;5073583;28;20056;-55
2022/09/28 06:35:29;;;;;;;22.92;11.90;;;14.50;99.90;;;;;;5073407;28;20111;-55
2022/09/28 06:37:56;;;;;;;18.15;11.50;;;14.60;99.90;;;;;;5074825;28;20028;-55
2022/09/28 06:40:23;;;;;;;15.10;9.68;;;14.80;99.90;;;;;;5073402;28;20021;-55
2022/09/28 06:42:58;;;;;;;11.35;5.38;;;14.90;99.90;;;;;;5073299;28;20127;-55
2022/09/28 06:45:43;;;;;;;15.00;8.77;;;14.60;99.90;;;;;;5074337;28;20454;-55
2022/09/28 06:48:28;;;;;;;10.10;6.03;;;14.60;99.90;;;;;;5073816;28;20028;-55
2022/09/28 06:50:55;;;;;;;13.77;8.55;;;14.40;99.90;;;;;;5073803;28;20029;-55
2022/09/28 06:53:32;;;;;;;18.48;10.35;;;14.50;99.90;;;;;;5075361;28;20469;-55
2022/09/28 06:56:10;;;;;;;14.77;9.23;;;14.40;99.90;;;;;;5073707;28;20035;-55
2022/09/28 06:58:36;;;;;;;14.35;8.95;;;14.60;99.90;;;;;;5075202;28;20032;-55
2022/09/28 07:01:02;;;;;;;17.50;9.63;;;14.70;99.90;;;;;;5073952;28;20036;-55
2022/09/28 07:03:37;;;;;;;14.45;9.32;;;14.60;99.90;;;;;;5073665;28;20091;-55
2022/09/28 07:06:13;;;;;;;12.32;8.38;;;14.70;99.90;;;;;;5074462;28;20108;-55
2022/09/28 07:09:05;;;;;;;15.35;8.35;;;14.80;99.90;;;;;;5055075;28;20025;-55
2022/09/28 07:11:52;;;;;;;15.90;8.50;;;14.80;99.90;;;;;;5073938;28;20080;-55
2022/09/28 07:14:25;;;;;;;20.20;10.20;;;14.90;99.90;;;;;;5073099;28;20029;-55
2022/09/28 07:16:54;;;;;;;12.02;8.48;;;14.80;99.90;;;;;;5072708;28;20063;-54
2022/09/28 07:19:20;;;;;;;20.90;8.98;;;15.00;99.90;;;;;;5072884;28;20050;-55
2022/09/28 07:21:46;;;;;;;10.80;6.40;;;15.10;99.90;;;;;;5072513;28;20056;-55
2022/09/28 07:24:13;;;;;;;10.70;6.22;;;15.20;99.90;;;;;;5057832;28;20039;-55
2022/09/28 07:26:59;;;;;;;15.73;8.60;;;15.30;99.90;;;;;;5073936;28;20046;-55
2022/09/28 07:29:34;;;;;;;10.43;7.15;;;15.20;99.90;;;;;;5071957;28;20024;-55
2022/09/28 07:32:21;;;;;;;12.68;7.00;;;15.10;99.90;;;;;;5073303;28;20391;-54
2022/09/28 07:35:14;;;;;;;9.68;6.25;;;15.60;99.90;;;;;;5074003;28;20054;-55
2022/09/28 07:38:01;;;;;;;13.02;6.50;;;16.30;99.90;;;;;;5071763;28;20108;-55
2022/09/28 07:43:19;;;;;;;8.00;5.18;;;17.60;99.90;;;;;;5073235;28;20039;-55
2022/09/28 07:45:51;;;;;;;7.93;4.38;;;18.00;99.90;;;;;;5072988;28;20028;-55
2022/09/28 07:48:17;;;;;;;7.10;4.32;;;18.20;99.90;;;;;;5074443;28;20647;-55
2022/09/28 07:51:07;;;;;;;6.30;3.47;;;19.10;99.90;;;;;;5043580;28;20041;-55
2022/09/28 07:54:05;;;;;;;5.00;3.83;;;19.20;99.30;;;;;;5061019;28;20032;-55
2022/09/28 07:56:37;;;;;;;7.68;3.13;;;19.90;99.90;;;;;;5072864;28;20037;-55
2022/09/28 07:59:17;;;;;;;6.40;3.00;;;20.00;96.20;;;;;;5074313;28;20119;-55
2022/09/28 08:02:01;;;;;;;5.88;3.15;;;20.30;95.20;;;;;;5074784;28;20086;-55
2022/09/28 08:04:29;;;;;;;11.73;6.57;;;20.40;92.00;;;;;;5072509;28;20029;-55
2022/09/28 08:06:55;;;;;;;10.90;3.60;;;21.00;93.10;;;;;;5071802;28;20028;-55
2022/09/28 08:09:21;;;;;;;10.60;4.00;;;21.40;92.20;;;;;;5071311;28;20135;-55
2022/09/28 08:12:06;;;;;;;8.13;2.80;;;21.20;84.30;;;;;;5066070;28;20118;-55
2022/09/28 08:14:56;;;;;;;19.27;4.75;;;21.40;89.20;;;;;;5073014;28;20028;-55
2022/09/28 08:17:48;;;;;;;6.15;2.55;;;22.00;82.80;;;;;;5066317;28;20045;-55
2022/09/28 08:23:06;;;;;;;23.85;6.97;;;22.70;85.60;;;;;;5077833;28;20028;-55
2022/09/28 08:25:37;;;;;;;17.98;5.85;;;23.00;81.60;;;;;;5075981;28;20028;-55
2022/09/28 08:28:06;;;;;;;22.58;6.03;;;23.50;81.40;;;;;;5074119;28;20024;-55
2022/09/28 08:30:35;;;;;;;7.82;3.58;;;23.50;78.70;;;;;;5075337;28;20025;-55
2022/09/28 08:33:22;;;;;;;8.07;3.45;;;23.60;73.40;;;;;;5075777;28;20063;-55
2022/09/28 08:35:56;;;;;;;8.65;4.15;;;23.70;67.60;;;;;;5077836;28;20070;-55
2022/09/28 08:39:00;;;;;;;8.35;3.38;;;23.00;70.60;;;;;;5010691;28;20050;-55
2022/09/28 08:41:52;;;;;;;19.23;5.90;;;23.90;73.50;;;;;;5074716;28;20120;-55
2022/09/28 08:45:08;;;;;;;7.13;3.25;;;23.80;72.20;;;;;;5071763;28;20024;-55
2022/09/28 08:51:37;;;;;;;17.60;6.72;;;22.90;72.90;;;;;;5057115;28;20486;-55
2022/09/28 08:54:25;;;;;;;11.35;7.07;;;23.90;68.80;;;;;;5022801;28;20032;-55
2022/09/28 08:57:01;;;;;;;20.13;7.40;;;24.60;66.50;;;;;;5075410;28;20044;-55
2022/09/28 08:59:45;;;;;;;21.00;6.10;;;24.70;67.00;;;;;;5074262;28;20024;-56
2022/09/28 09:02:38;;;;;;;10.50;3.70;;;24.90;67.60;;;;;;5075760;28;20112;-55
2022/09/28 09:05:22;;;;;;;5.88;3.45;;;25.20;67.00;;;;;;5075185;28;20040;-56
2022/09/28 09:08:23;;;;;;;9.73;3.92;;;25.70;63.90;;;;;;5074865;28;20021;-55
2022/09/28 09:11:02;;;;;;;18.30;5.38;;;25.80;62.80;;;;;;5068355;28;20032;-55
2022/09/28 09:14:04;;;;;;;18.98;6.22;;;26.30;60.80;;;;;;5074871;28;20051;-55
2022/09/28 09:16:33;;;;;;;13.35;5.18;;;26.10;63.40;;;;;;5047910;28;20037;-55
2022/09/28 09:19:40;;;;;;;12.63;4.35;;;26.10;60.30;;;;;;5055108;28;20025;-56
2022/09/28 09:22:58;;;;;;;14.98;3.20;;;25.00;62.30;;;;;;5054760;28;20028;-55
2022/09/28 09:25:41;;;;;;;8.50;4.88;;;25.80;61.80;;;;;;5070214;28;20051;-56
2022/09/28 09:28:37;;;;;;;11.68;5.22;;;26.70;64.50;;;;;;5074380;28;20106;-55
2022/09/28 09:31:25;;;;;;;12.00;3.35;;;26.70;63.30;;;;;;5074571;28;20025;-55
2022/09/28 09:34:30;;;;;;;14.77;4.45;;;25.90;58.40;;;;;;5054692;28;20033;-56
2022/09/28 09:37:37;;;;;;;10.38;4.50;;;25.80;61.70;;;;;;5063182;28;20044;-56
2022/09/28 09:41:20;;;;;;;15.70;3.83;;;25.60;61.90;;;;;;5073185;28;20032;-55
2022/09/28 09:44:12;;;;;;;13.98;4.63;;;26.00;65.20;;;;;;5016053;28;20577;-55
2022/09/28 09:46:55;;;;;;;11.88;4.47;;;26.10;58.80;;;;;;5075826;28;20036;-55
2022/09/28 09:49:56;;;;;;;9.32;3.00;;;26.60;60.00;;;;;;5074527;28;20020;-55
2022/09/28 09:52:36;;;;;;;14.40;5.05;;;26.80;57.40;;;;;;5075517;28;20099;-56
2022/09/28 09:55:13;;;;;;;8.55;3.72;;;27.00;58.40;;;;;;5074342;28;20039;-55
2022/09/28 09:57:56;;;;;;;6.47;3.35;;;26.20;57.20;;;;;;5074129;28;20527;-55
2022/09/28 10:00:34;;;;;;;3.33;2.67;;;26.50;59.50;;;;;;5073864;28;20067;-56
2022/09/28 10:03:37;;;;;;;13.88;3.55;;;26.70;58.30;;;;;;5073755;28;20043;-56
2022/09/28 10:06:24;;;;;;;8.07;3.03;;;27.30;57.00;;;;;;5073918;28;20052;-56
2022/09/28 10:09:13;;;;;;;7.55;3.28;;;28.30;56.90;;;;;;5073685;28;20030;-55
2022/09/28 10:11:50;;;;;;;18.67;4.70;;;28.20;56.80;;;;;;5073902;28;20343;-56
2022/09/28 10:14:24;;;;;;;10.18;4.00;;;27.30;57.10;;;;;;5070623;28;20036;-56
2022/09/28 10:17:02;;;;;;;15.73;5.15;;;27.40;54.90;;;;;;5074788;28;20068;-55
2022/09/28 10:19:47;;;;;;;15.52;4.97;;;27.90;57.90;;;;;;5075262;28;20123;-56
2022/09/28 10:22:32;;;;;;;7.97;3.47;;;27.70;53.50;;;;;;5075571;28;20035;-56
2022/09/28 10:25:05;;;;;;;26.27;6.25;;;27.50;53.90;;;;;;5073506;28;20131;-56
2022/09/28 10:27:34;;;;;;;8.88;3.10;;;28.50;54.80;;;;;;5073461;28;20115;-55
2022/09/28 10:30:09;;;;;;;12.63;3.65;;;28.20;53.30;;;;;;5073408;28;20119;-56
2022/09/28 10:32:44;;;;;;;13.77;4.63;;;28.00;52.60;;;;;;5072908;28;20029;-55
2022/09/28 10:35:18;;;;;;;13.05;4.07;;;28.20;54.10;;;;;;5072665;28;20032;-56
2022/09/28 10:38:03;;;;;;;7.70;3.45;;;28.70;53.70;;;;;;5073406;28;20032;-56
2022/09/28 10:40:46;;;;;;;11.97;3.53;;;29.20;51.40;;;;;;5072738;28;20033;-55
2022/09/28 10:43:22;;;;;;;9.57;3.30;;;29.40;51.10;;;;;;5072987;28;20289;-56
2022/09/28 10:46:06;;;;;;;7.13;3.65;;;29.40;50.80;;;;;;5073160;28;20470;-56
2022/09/28 10:49:08;;;;;;;4.15;2.40;;;29.70;50.60;;;;;;5073091;28;20028;-55
2022/09/28 10:51:46;;;;;;;6.07;3.50;;;29.70;52.60;;;;;;5060017;28;20039;-55
2022/09/28 10:54:29;;;;;;;9.32;3.60;;;29.90;50.00;;;;;;5073149;28;20105;-56
2022/09/28 10:56:58;;;;;;;7.13;3.70;;;29.50;54.40;;;;;;5072740;28;20474;-56
2022/09/28 10:59:41;;;;;;;4.80;2.78;;;30.10;51.20;;;;;;5052893;28;20068;-56
2022/09/28 11:02:38;;;;;;;12.63;3.13;;;29.10;49.20;;;;;;5050887;28;20447;-56
2022/09/28 11:05:23;;;;;;;12.73;3.03;;;29.80;50.40;;;;;;5053653;28;20029;-55
2022/09/28 11:07:54;;;;;;;13.60;4.40;;;28.00;50.10;;;;;;5069641;28;20493;-56
2022/09/28 11:10:28;;;;;;;9.45;4.05;;;28.50;52.30;;;;;;5069431;28;20074;-56
2022/09/28 11:13:01;;;;;;;7.18;3.65;;;29.10;51.00;;;;;;5054798;28;20137;-55
2022/09/28 11:15:32;;;;;;;36.53;7.45;;;29.30;50.90;;;;;;5072950;28;20123;-56
2022/09/28 11:18:30;;;;;;;12.05;3.92;;;29.30;51.00;;;;;;5072623;28;20401;-56
2022/09/28 11:21:13;;;;;;;7.93;3.60;;;28.70;50.00;;;;;;5072307;28;20132;-56
2022/09/28 11:24:00;;;;;;;14.57;4.78;;;29.00;49.70;;;;;;5072621;28;20040;-56
2022/09/28 11:26:37;;;;;;;9.50;3.42;;;28.70;49.80;;;;;;5052422;28;20028;-56
2022/09/28 11:29:06;;;;;;;23.88;6.50;;;29.20;51.70;;;;;;5060977;28;20395;-56
2022/09/28 11:31:46;;;;;;;12.90;4.40;;;29.90;50.00;;;;;;5072632;28;20031;-56
2022/09/28 11:34:46;;;;;;;8.73;4.07;;;30.00;49.60;;;;;;5072764;28;20028;-56
2022/09/28 11:37:21;;;;;;;13.75;3.80;;;29.80;50.80;;;;;;5072866;28;20136;-56
2022/09/28 11:40:09;;;;;;;9.82;3.63;;;29.60;49.30;;;;;;5073733;28;20028;-56
2022/09/28 11:43:03;;;;;;;7.00;2.97;;;29.70;52.00;;;;;;5072706;28;20063;-56
2022/09/28 11:45:46;;;;;;;11.40;4.28;;;29.90;49.50;;;;;;5072846;28;20424;-55
2022/09/28 11:48:16;;;;;;;8.32;3.95;;;30.00;48.80;;;;;;5074676;28;20029;-55
2022/09/28 11:51:04;;;;;;;13.07;4.53;;;29.70;50.50;;;;;;5071350;28;20029;-56
2022/09/28 11:53:41;;;;;;;11.50;4.28;;;30.10;47.20;;;;;;5070256;28;20446;-55
2022/09/28 11:56:36;;;;;;;8.70;3.55;;;30.10;49.00;;;;;;5077314;28;20119;-56
2022/09/28 11:59:14;;;;;;;5.72;3.30;;;30.10;51.00;;;;;;5077150;28;20029;-55
2022/09/28 12:01:48;;;;;;;6.28;3.53;;;30.10;48.50;;;;;;5077014;28;20033;-56
2022/09/28 12:04:38;;;;;;;8.18;3.47;;;30.30;50.20;;;;;;5076232;28;20032;-56
2022/09/28 12:07:28;;;;;;;9.27;3.45;;;30.70;48.40;;;;;;5076047;28;20548;-56
2022/09/28 12:10:10;;;;;;;17.55;5.30;;;30.20;47.00;;;;;;5075972;28;20020;-56
2022/09/28 12:12:38;;;;;;;8.10;3.40;;;29.50;48.40;;;;;;5076325;28;20128;-56
2022/09/28 12:15:33;;;;;;;15.73;4.55;;;29.60;48.60;;;;;;5075362;28;20328;-56
2022/09/28 12:18:07;;;;;;;10.63;4.07;;;30.10;50.70;;;;;;5076483;28;20063;-56
2022/09/28 12:20:39;;;;;;;16.92;4.65;;;30.50;48.80;;;;;;5077296;28;20481;-56
2022/09/28 12:23:27;;;;;;;11.05;4.15;;;30.70;48.00;;;;;;5077042;28;20032;-56
2022/09/28 12:26:03;;;;;;;9.55;3.80;;;30.10;47.50;;;;;;5093516;28;20032;-56
2022/09/28 12:28:32;;;;;;;7.18;3.58;;;29.60;48.00;;;;;;5096708;28;20031;-56
2022/09/28 12:31:08;;;;;;;6.93;3.25;;;29.90;48.20;;;;;;5076403;28;20020;-56
2022/09/28 12:33:35;;;;;;;7.20;2.72;;;29.80;48.20;;;;;;5076605;28;20033;-56
2022/09/28 12:36:13;;;;;;;9.73;3.75;;;29.90;46.40;;;;;;5074286;28;20091;-56
2022/09/28 12:39:29;;;;;;;8.60;3.58;;;29.80;47.80;;;;;;5077090;28;20039;-56
2022/09/28 12:42:10;;;;;;;15.75;5.00;;;29.20;47.80;;;;;;5014971;28;20041;-56
2022/09/28 12:44:55;;;;;;;20.90;4.82;;;28.40;48.80;;;;;;5014440;28;20380;-56
2022/09/28 12:47:26;;;;;;;14.25;4.70;;;28.40;50.30;;;;;;5012644;28;20042;-56
2022/09/28 12:50:17;;;;;;;8.73;3.35;;;28.10;49.00;;;;;;5015116;28;20073;-56
2022/09/28 12:52:58;;;;;;;16.50;4.50;;;28.00;50.00;;;;;;5015237;28;20073;-56
2022/09/28 12:55:35;;;;;;;12.90;3.28;;;28.10;52.20;;;;;;5015399;28;20109;-56
2022/09/28 12:58:07;;;;;;;15.18;4.75;;;28.20;50.90;;;;;;5015068;28;20030;-56
2022/09/28 13:01:19;;;;;;;13.63;3.72;;;28.00;51.60;;;;;;5014598;28;20104;-56
2022/09/28 13:03:59;;;;;;;19.50;3.60;;;28.00;53.10;;;;;;5002258;28;20413;-55
2022/09/28 13:06:44;;;;;;;8.25;3.20;;;27.80;56.80;;;;;;5013061;28;20115;-55
2022/09/28 13:09:13;;;;;;;6.43;2.80;;;27.10;55.90;;;;;;5013549;28;20116;-56
2022/09/28 13:11:54;;;;;;;17.75;4.00;;;27.00;55.80;;;;;;5022382;28;20049;-56
2022/09/28 13:14:29;;;;;;;6.07;3.13;;;26.60;56.30;;;;;;5074786;28;20482;-56
2022/09/28 13:16:57;;;;;;;17.08;5.68;;;26.30;58.80;;;;;;5074426;28;20075;-56
2022/09/28 13:19:58;;;;;;;17.88;5.15;;;26.30;56.70;;;;;;5075238;28;20107;-56
2022/09/28 13:22:28;;;;;;;8.63;2.95;;;26.40;57.10;;;;;;5054450;28;20536;-55
2022/09/28 13:24:58;;;;;;;6.18;3.33;;;26.00;58.20;;;;;;5074279;28;20028;-56
2022/09/28 13:27:51;;;;;;;6.40;3.50;;;26.20;58.00;;;;;;5096702;28;20066;-56
2022/09/28 13:30:18;;;;;;;15.60;5.00;;;26.10;59.00;;;;;;5088594;28;20044;-55
2022/09/28 13:32:45;;;;;;;12.13;4.25;;;26.10;60.80;;;;;;5096650;28;20038;-56
2022/09/28 13:35:19;;;;;;;13.60;4.03;;;26.00;61.90;;;;;;5096264;28;20031;-56
2022/09/28 13:37:47;;;;;;;7.38;3.20;;;25.60;63.20;;;;;;5096461;28;20062;-55
2022/09/28 13:40:13;;;;;;;9.25;3.00;;;25.10;59.20;;;;;;5096229;28;20105;-56
2022/09/28 13:42:51;;;;;;;16.42;4.53;;;24.80;64.30;;;;;;5096334;28;20035;-55